createdAt,value
2023-01-30T00:02:00.910Z,-4.21
2023-01-30T00:05:02.611Z,-4.18
2023-01-30T00:08:04.298Z,-4.17
2023-01-30T00:11:11.748Z,-4.12
2023-01-30T00:14:13.484Z,-4.08
2023-01-30T00:17:15.087Z,-4.12
2023-01-30T00:20:17.413Z,-4.19
2023-01-30T00:23:19.229Z,-4.30
2023-01-30T00:26:20.893Z,-4.34
2023-01-30T00:29:22.544Z,-4.37
2023-01-30T00:32:24.181Z,-4.44
2023-01-30T00:35:26.258Z,-4.49
2023-01-30T00:38:27.863Z,-4.54
2023-01-30T00:41:29.509Z,-4.58
2023-01-30T00:44:31.183Z,-4.63
2023-01-30T00:47:32.824Z,-4.66
2023-01-30T00:50:34.340Z,-4.74
2023-01-30T00:53:35.999Z,-4.80
2023-01-30T00:56:37.824Z,-4.80
2023-01-30T00:59:39.509Z,-4.80
2023-01-30T01:02:41.213Z,-4.84
2023-01-30T01:05:43.172Z,-4.92
2023-01-30T01:08:45.220Z,-5.00
2023-01-30T01:11:46.816Z,-5.04
2023-01-30T01:14:48.465Z,-5.05
2023-01-30T01:17:50.293Z,-4.98
2023-01-30T01:20:52.061Z,-4.86
2023-01-30T01:23:56.405Z,-4.71
2023-01-30T01:26:58.607Z,-4.56
2023-01-30T01:30:02.284Z,-4.44
2023-01-30T01:33:04.494Z,-4.34
2023-01-30T01:36:07.148Z,-4.24
2023-01-30T01:39:08.906Z,-4.15
2023-01-30T01:42:11.414Z,-4.06
2023-01-30T01:45:20.158Z,-4.03
2023-01-30T01:48:32.111Z,-4.00
2023-01-30T01:51:41.853Z,-3.99
2023-01-30T01:54:47.351Z,-4.00
2023-01-30T01:57:53.531Z,-4.03
2023-01-30T02:00:57.667Z,-4.07
2023-01-30T02:04:03.739Z,-4.10
2023-01-30T02:07:05.342Z,-4.16
2023-01-30T02:10:09.987Z,-4.19
2023-01-30T02:13:11.607Z,-4.17
2023-01-30T02:16:13.343Z,-4.11
2023-01-30T02:19:50.520Z,-4.08
2023-01-30T02:23:13.515Z,-4.08
2023-01-30T02:26:34.101Z,-4.07
2023-01-30T02:30:04.235Z,-4.09
2023-01-30T02:33:13.636Z,-4.15
2023-01-30T02:36:17.767Z,-4.18
2023-01-30T02:39:34.474Z,-4.22
2023-01-30T02:43:04.930Z,-4.27
2023-01-30T02:46:20.513Z,-4.35
2023-01-30T02:49:32.075Z,-4.42
2023-01-30T02:52:34.073Z,-4.48
2023-01-30T02:55:35.802Z,-4.53
2023-01-30T02:58:43.121Z,-4.62
2023-01-30T03:01:53.805Z,-4.75
2023-01-30T03:05:01.431Z,-4.87
2023-01-30T03:08:24.356Z,-5.00
2023-01-30T03:11:32.790Z,-5.20
2023-01-30T03:15:02.758Z,-5.30
2023-01-30T03:18:04.520Z,-5.35
2023-01-30T03:21:06.917Z,-5.34
2023-01-30T03:24:08.568Z,-5.28
2023-01-30T03:27:12.413Z,-5.15
2023-01-30T03:30:14.489Z,-4.99
2023-01-30T03:33:15.898Z,-4.82
2023-01-30T03:36:17.602Z,-4.71
2023-01-30T03:39:19.309Z,-4.61
2023-01-30T03:42:21.316Z,-4.51
2023-01-30T03:45:22.970Z,-4.44
2023-01-30T03:48:24.604Z,-4.41
2023-01-30T03:51:26.273Z,-4.39
2023-01-30T03:54:27.853Z,-4.35
2023-01-30T03:57:29.590Z,-4.32
2023-01-30T04:00:31.183Z,-4.29
2023-01-30T04:03:33.733Z,-4.28
2023-01-30T04:06:36.673Z,-4.27
2023-01-30T04:09:38.460Z,-4.27
2023-01-30T04:12:40.021Z,-4.28
2023-01-30T04:15:41.601Z,-4.28
2023-01-30T04:18:43.316Z,-4.29
2023-01-30T04:21:45.007Z,-4.29
2023-01-30T04:24:46.652Z,-4.30
2023-01-30T04:27:48.217Z,-4.32
2023-01-30T04:30:50.009Z,-4.31
2023-01-30T04:33:51.595Z,-4.32
2023-01-30T04:36:53.196Z,-4.32
2023-01-30T04:39:54.794Z,-4.32
2023-01-30T04:42:56.333Z,-4.33
2023-01-30T04:45:58.431Z,-4.35
2023-01-30T04:49:00.044Z,-4.36
2023-01-30T04:52:01.612Z,-4.37
2023-01-30T04:55:03.300Z,-4.39
2023-01-30T04:58:04.872Z,-4.40
2023-01-30T05:01:21.425Z,-4.42
2023-01-30T05:04:23.024Z,-4.47
2023-01-30T05:07:24.799Z,-4.66
2023-01-30T05:10:26.444Z,-4.81
2023-01-30T05:13:27.992Z,-4.82
2023-01-30T05:16:29.737Z,-4.80
2023-01-30T05:19:31.239Z,-4.77
2023-01-30T05:22:33.201Z,-4.73
2023-01-30T05:25:34.675Z,-4.72
2023-01-30T05:28:36.258Z,-4.72
2023-01-30T05:31:37.995Z,-4.71
2023-01-30T05:34:39.586Z,-4.73
2023-01-30T05:37:41.272Z,-4.77
2023-01-30T05:40:43.071Z,-4.78
2023-01-30T05:43:44.664Z,-4.79
2023-01-30T05:46:46.395Z,-4.75
2023-01-30T05:49:48.116Z,-4.64
2023-01-30T05:52:49.800Z,-4.62
2023-01-30T05:55:55.862Z,-4.62
2023-01-30T05:58:57.489Z,-4.64
2023-01-30T06:01:59.071Z,-4.67
2023-01-30T06:05:00.689Z,-4.69
2023-01-30T06:08:02.244Z,-4.71
2023-01-30T06:11:09.886Z,-4.74
2023-01-30T06:14:11.564Z,-4.75
2023-01-30T06:17:13.285Z,-4.74
2023-01-30T06:20:14.835Z,-4.72
2023-01-30T06:23:17.275Z,-4.68
2023-01-30T06:26:19.022Z,-4.64
2023-01-30T06:29:20.671Z,-4.61
2023-01-30T06:32:23.217Z,-4.57
2023-01-30T06:35:24.873Z,-4.42
2023-01-30T06:38:26.527Z,-4.28
2023-01-30T06:41:28.053Z,-4.16
2023-01-30T06:44:29.807Z,-4.10
2023-01-30T06:47:31.311Z,-4.04
2023-01-30T06:50:32.890Z,-3.99
2023-01-30T06:53:34.483Z,-3.95
2023-01-30T06:56:36.219Z,-3.88
2023-01-30T06:59:37.921Z,-3.80
2023-01-30T07:02:40.127Z,-3.72
2023-01-30T07:05:43.088Z,-3.64
2023-01-30T07:08:44.675Z,-3.58
2023-01-30T07:11:46.258Z,-3.53
2023-01-30T07:14:48.041Z,-3.48
2023-01-30T07:17:49.623Z,-3.42
2023-01-30T07:20:51.353Z,-3.34
2023-01-30T07:23:53.264Z,-3.27
2023-01-30T07:26:55.064Z,-3.19
2023-01-30T07:29:56.753Z,-3.12
2023-01-30T07:32:59.856Z,-3.04
2023-01-30T07:36:01.429Z,-2.95
2023-01-30T07:39:03.798Z,-2.84
2023-01-30T07:42:05.855Z,-2.72
2023-01-30T07:45:08.391Z,-2.60
2023-01-30T07:48:11.993Z,-2.48
2023-01-30T07:51:13.872Z,-2.35
2023-01-30T07:54:15.425Z,-2.25
2023-01-30T07:57:17.174Z,-2.14
2023-01-30T08:00:19.332Z,-2.06
2023-01-30T08:03:21.181Z,-1.99
2023-01-30T08:06:22.841Z,-1.92
2023-01-30T08:09:24.427Z,-1.87
2023-01-30T08:12:26.145Z,-1.85
2023-01-30T08:15:27.814Z,-1.84
2023-01-30T08:18:30.644Z,-1.86
2023-01-30T08:21:32.820Z,-1.88
2023-01-30T08:24:34.390Z,-1.88
2023-01-30T08:27:36.336Z,-1.84
2023-01-30T08:30:37.931Z,-1.76
2023-01-30T08:33:39.767Z,-1.67
2023-01-30T08:36:41.516Z,-1.57
2023-01-30T08:39:43.005Z,-1.50
2023-01-30T08:42:45.189Z,-1.39
2023-01-30T08:45:46.823Z,-1.27
2023-01-30T08:48:50.270Z,-1.18
2023-01-30T08:51:52.135Z,-1.17
2023-01-30T08:54:53.737Z,-1.12
2023-01-30T08:57:56.962Z,-1.04
2023-01-30T09:00:58.601Z,-0.93
2023-01-30T09:04:00.258Z,-0.89
2023-01-30T09:07:01.904Z,-0.81
2023-01-30T09:10:04.179Z,-0.68
2023-01-30T09:13:09.111Z,-0.60
2023-01-30T09:16:11.459Z,-0.53
2023-01-30T09:19:13.278Z,-0.45
2023-01-30T09:22:14.822Z,-0.41
2023-01-30T09:25:16.445Z,-0.33
2023-01-30T09:28:18.120Z,-0.24
2023-01-30T09:31:19.962Z,-0.12
2023-01-30T09:34:22.365Z,0.22
2023-01-30T09:37:24.475Z,0.75
2023-01-30T09:40:31.881Z,1.11
2023-01-30T09:44:08.588Z,0.97
2023-01-30T09:47:38.720Z,0.81
2023-01-30T09:51:02.239Z,0.73
2023-01-30T09:54:12.921Z,0.63
2023-01-30T09:57:22.473Z,0.51
2023-01-30T10:00:38.599Z,0.43
2023-01-30T10:03:53.126Z,0.38
2023-01-30T10:07:13.025Z,0.32
2023-01-30T10:10:24.107Z,0.21
2023-01-30T10:13:33.851Z,0.10
2023-01-30T10:16:47.332Z,0.03
2023-01-30T10:20:18.175Z,-0.03
2023-01-30T10:23:39.227Z,-0.06
2023-01-30T10:26:41.764Z,-0.07
2023-01-30T10:29:54.230Z,-0.10
2023-01-30T10:33:03.064Z,-0.12
2023-01-30T10:36:11.756Z,-0.08
2023-01-30T10:39:54.281Z,-0.01
2023-01-30T10:43:23.325Z,0.04
2023-01-30T10:46:35.524Z,0.08
2023-01-30T10:50:19.467Z,0.11
2023-01-30T10:53:28.980Z,0.14
2023-01-30T10:56:48.831Z,0.15
2023-01-30T10:59:55.570Z,0.16
2023-01-30T11:03:20.913Z,0.17
2023-01-30T11:06:24.505Z,0.18
2023-01-30T11:09:41.729Z,0.18
2023-01-30T11:12:43.317Z,0.18
2023-01-30T11:15:47.510Z,0.15
2023-01-30T11:22:14.360Z,0.14
2023-01-30T11:25:21.478Z,0.14
2023-01-30T11:28:25.067Z,0.11
2023-01-30T11:31:40.849Z,0.04
2023-01-30T11:34:44.093Z,-0.03
2023-01-30T11:37:45.848Z,-0.06
2023-01-30T11:40:47.671Z,-0.12
2023-01-30T11:43:49.226Z,-0.13
2023-01-30T11:46:50.903Z,-0.12
2023-01-30T11:50:03.706Z,-0.11
2023-01-30T11:53:20.240Z,-0.08
2023-01-30T11:56:33.271Z,-0.03
2023-01-30T11:59:54.286Z,0.02
2023-01-30T12:02:57.008Z,0.05
2023-01-30T12:05:58.966Z,0.02
2023-01-30T12:09:01.108Z,-0.02
2023-01-30T12:12:04.057Z,-0.07
2023-01-30T12:15:15.311Z,-0.11
2023-01-30T12:18:43.136Z,-0.20
2023-01-30T12:22:00.075Z,-0.30
2023-01-30T12:25:09.158Z,-0.34
2023-01-30T12:28:37.766Z,-0.37
2023-01-30T12:31:54.661Z,-0.37
2023-01-30T12:34:56.195Z,-0.34
2023-01-30T12:38:00.992Z,-0.34
2023-01-30T12:41:02.650Z,-0.33
2023-01-30T12:44:24.269Z,-0.32
2023-01-30T12:47:47.005Z,-0.32
2023-01-30T12:51:21.298Z,-0.30
2023-01-30T12:54:45.233Z,-0.30
2023-01-30T12:58:03.653Z,-0.29
2023-01-30T13:01:23.384Z,-0.27
2023-01-30T13:04:56.132Z,-0.27
2023-01-30T13:08:17.649Z,-0.27
2023-01-30T13:12:04.089Z,-0.27
2023-01-30T13:15:21.074Z,-0.29
2023-01-30T13:18:35.476Z,-0.31
2023-01-30T13:21:47.173Z,-0.32
2023-01-30T13:24:58.544Z,-0.34
2023-01-30T13:28:09.783Z,-0.34
2023-01-30T13:31:17.258Z,-0.33
2023-01-30T13:34:48.295Z,-0.33
2023-01-30T13:37:51.271Z,-0.36
2023-01-30T13:40:56.971Z,-0.37
2023-01-30T13:43:59.005Z,-0.38
2023-01-30T13:47:20.437Z,-0.38
2023-01-30T13:50:34.398Z,-0.34
2023-01-30T13:53:44.775Z,-0.33
2023-01-30T13:56:51.604Z,-0.32
2023-01-30T14:00:22.885Z,-0.30
2023-01-30T14:03:32.566Z,-0.26
2023-01-30T14:06:37.340Z,-0.23
2023-01-30T14:10:08.765Z,-0.21
2023-01-30T14:13:13.716Z,-0.17
2023-01-30T14:16:15.313Z,-0.16
2023-01-30T14:19:48.174Z,-0.14
2023-01-30T14:23:01.115Z,-0.10
2023-01-30T14:26:03.058Z,-0.05
2023-01-30T14:29:07.585Z,-0.02
2023-01-30T14:32:12.944Z,-0.02
2023-01-30T14:35:20.990Z,-0.02
2023-01-30T14:38:23.037Z,-0.06
2023-01-30T14:41:25.679Z,-0.09
2023-01-30T14:45:05.966Z,-0.12
2023-01-30T14:48:32.138Z,-0.11
2023-01-30T14:51:37.184Z,-0.08
2023-01-30T14:54:44.765Z,-0.06
2023-01-30T14:57:55.115Z,-0.04
2023-01-30T15:00:59.970Z,-0.04
2023-01-30T15:04:03.623Z,-0.04
2023-01-30T15:07:09.685Z,-0.03
2023-01-30T15:10:27.752Z,0.02
2023-01-30T15:14:01.122Z,0.08
2023-01-30T15:17:05.510Z,0.08
2023-01-30T15:20:29.142Z,0.12
2023-01-30T15:24:15.916Z,0.17
2023-01-30T15:27:32.678Z,0.23
2023-01-30T15:30:52.666Z,0.25
2023-01-30T15:33:55.546Z,0.32
2023-01-30T15:36:57.566Z,0.36
2023-01-30T15:40:19.231Z,0.37
2023-01-30T15:43:58.954Z,0.43
2023-01-30T15:47:34.628Z,0.48
2023-01-30T15:50:36.910Z,0.51
2023-01-30T15:53:42.862Z,0.56
2023-01-30T15:56:48.685Z,0.57
2023-01-30T15:59:53.246Z,0.59
2023-01-30T16:02:55.541Z,0.61
2023-01-30T16:05:58.387Z,0.62
2023-01-30T16:09:06.502Z,0.64
2023-01-30T16:12:30.033Z,0.66
2023-01-30T16:15:40.203Z,0.65
2023-01-30T16:18:44.561Z,0.62
2023-01-30T16:21:46.483Z,0.61
2023-01-30T16:24:51.330Z,0.58
2023-01-30T16:27:53.288Z,0.56
2023-01-30T16:30:58.781Z,0.54
2023-01-30T16:34:01.142Z,0.49
2023-01-30T16:37:07.064Z,0.34
2023-01-30T16:40:16.001Z,0.04
2023-01-30T16:43:20.050Z,-0.13
2023-01-30T16:46:45.937Z,-0.20
2023-01-30T16:49:49.442Z,-0.27
2023-01-30T16:52:52.727Z,-0.34
2023-01-30T16:55:56.375Z,-0.43
2023-01-30T16:58:59.686Z,-0.47
2023-01-30T17:02:03.153Z,-0.43
2023-01-30T17:05:22.500Z,-0.38
2023-01-30T17:08:33.359Z,-0.33
2023-01-30T17:11:40.088Z,-0.25
2023-01-30T17:14:41.815Z,-0.21
2023-01-30T17:17:44.263Z,-0.16
2023-01-30T17:20:45.862Z,-0.10
2023-01-30T17:23:51.458Z,0.01
2023-01-30T17:26:56.109Z,0.09
2023-01-30T17:29:57.990Z,0.16
2023-01-30T17:32:59.661Z,0.25
2023-01-30T17:36:04.644Z,0.32
2023-01-30T17:39:11.697Z,0.36
2023-01-30T17:42:14.546Z,0.37
2023-01-30T17:45:16.287Z,0.37
2023-01-30T17:48:17.819Z,0.41
2023-01-30T17:51:19.389Z,0.42
2023-01-30T17:54:21.661Z,0.44
2023-01-30T17:57:23.400Z,0.45
2023-01-30T18:00:25.082Z,0.50
2023-01-30T18:03:26.800Z,0.50
2023-01-30T18:06:28.470Z,0.48
2023-01-30T18:09:30.509Z,0.53
2023-01-30T18:12:32.046Z,0.55
2023-01-30T18:15:33.628Z,0.56
2023-01-30T18:18:35.327Z,0.62
2023-01-30T18:21:38.067Z,0.67
2023-01-30T18:24:39.658Z,0.70
2023-01-30T18:27:42.831Z,0.77
2023-01-30T18:30:44.594Z,0.85
2023-01-30T18:33:46.724Z,0.91
2023-01-30T18:36:48.546Z,0.95
2023-01-30T18:39:50.059Z,1.00
2023-01-30T18:42:51.782Z,1.02
2023-01-30T18:46:05.570Z,1.05
2023-01-30T18:49:07.223Z,1.12
2023-01-30T18:52:09.383Z,1.15
2023-01-30T18:55:10.943Z,1.16
2023-01-30T18:58:12.498Z,1.18
2023-01-30T19:01:16.829Z,1.25
2023-01-30T19:04:18.647Z,1.26
2023-01-30T19:07:20.804Z,1.23
2023-01-30T19:10:22.334Z,1.23
2023-01-30T19:13:24.038Z,1.20
2023-01-30T19:16:26.283Z,1.13
2023-01-30T19:19:27.852Z,1.11
2023-01-30T19:22:29.518Z,1.08
2023-01-30T19:25:31.136Z,1.10
2023-01-30T19:28:32.873Z,1.12
2023-01-30T19:31:34.521Z,1.12
2023-01-30T19:34:36.138Z,1.18
2023-01-30T19:37:37.778Z,1.18
2023-01-30T19:40:46.594Z,1.17
2023-01-30T19:43:48.153Z,1.17
2023-01-30T19:46:49.741Z,1.16
2023-01-30T19:49:51.968Z,1.14
2023-01-30T19:52:53.559Z,1.16
2023-01-30T19:55:55.174Z,1.18
2023-01-30T19:58:58.834Z,1.17
2023-01-30T20:02:00.466Z,1.16
2023-01-30T20:05:02.110Z,1.15
2023-01-30T20:08:03.720Z,1.15
2023-01-30T20:11:07.609Z,1.14
2023-01-30T20:14:10.030Z,1.12
2023-01-30T20:17:11.668Z,1.14
2023-01-30T20:20:13.351Z,1.20
2023-01-30T20:23:14.993Z,1.21
2023-01-30T20:26:20.277Z,1.19
2023-01-30T20:29:21.869Z,1.17
2023-01-30T20:32:23.515Z,1.16
2023-01-30T20:35:25.085Z,1.15
2023-01-30T20:38:29.986Z,1.13
2023-01-30T20:41:32.046Z,1.15
2023-01-30T20:44:33.793Z,1.15
2023-01-30T20:47:35.398Z,1.15
2023-01-30T20:50:37.324Z,1.12
2023-01-30T20:53:39.550Z,1.13
2023-01-30T20:56:49.083Z,1.16
2023-01-30T20:59:50.636Z,1.19
2023-01-30T21:02:52.327Z,1.23
2023-01-30T21:05:59.835Z,1.22
2023-01-30T21:09:02.487Z,1.21
2023-01-30T21:12:04.464Z,1.17
2023-01-30T21:15:06.634Z,1.11
2023-01-30T21:18:08.412Z,1.07
2023-01-30T21:21:14.766Z,1.05
2023-01-30T21:24:17.440Z,0.98
2023-01-30T21:27:19.076Z,0.87
2023-01-30T21:30:20.614Z,0.74
2023-01-30T21:33:22.190Z,0.64
2023-01-30T21:36:24.600Z,0.65
2023-01-30T21:39:26.377Z,0.65
2023-01-30T21:42:27.941Z,0.68
2023-01-30T21:45:29.458Z,0.69
2023-01-30T21:48:31.077Z,0.70
2023-01-30T21:51:32.994Z,0.72
2023-01-30T21:54:34.546Z,0.77
2023-01-30T21:57:36.617Z,0.75
2023-01-30T22:00:38.246Z,0.69
2023-01-30T22:03:40.109Z,0.40
2023-01-30T22:06:42.622Z,0.23
2023-01-30T22:09:44.232Z,0.17
2023-01-30T22:12:45.931Z,0.17
2023-01-30T22:15:47.511Z,0.18
2023-01-30T22:18:54.522Z,0.14
2023-01-30T22:21:56.315Z,0.12
2023-01-30T22:24:57.833Z,0.17
2023-01-30T22:27:59.392Z,0.23
2023-01-30T22:31:03.819Z,0.28
2023-01-30T22:34:06.413Z,0.28
2023-01-30T22:37:08.098Z,0.25
2023-01-30T22:40:10.497Z,0.23
2023-01-30T22:43:12.154Z,0.25
2023-01-30T22:46:14.412Z,0.31
2023-01-30T22:49:15.963Z,0.32
2023-01-30T22:52:17.550Z,0.31
2023-01-30T22:55:19.414Z,0.29
2023-01-30T22:58:21.180Z,0.26
2023-01-30T23:01:24.246Z,0.26
2023-01-30T23:04:25.951Z,0.25
2023-01-30T23:07:27.717Z,0.24
2023-01-30T23:10:29.296Z,0.26
2023-01-30T23:13:30.945Z,0.26
2023-01-30T23:16:34.180Z,0.26
2023-01-30T23:19:35.840Z,0.26
2023-01-30T23:22:37.845Z,0.27
2023-01-30T23:25:41.007Z,0.29
2023-01-30T23:28:42.643Z,0.30
2023-01-30T23:31:45.472Z,0.27
2023-01-30T23:34:48.218Z,0.29
2023-01-30T23:37:49.830Z,0.42
2023-01-30T23:40:51.483Z,0.50
2023-01-30T23:43:53.609Z,0.52
2023-01-30T23:46:55.284Z,0.55
2023-01-30T23:49:56.778Z,0.59
2023-01-30T23:52:58.381Z,0.61
2023-01-30T23:55:59.954Z,0.65
2023-01-30T23:59:02.091Z,0.66
